ADDS METAR Data INFO
IDs: Format: Raw Decoded Include TAF

Data at: 0332 UTC 19 Jul 2018

K5R8 190315Z AUTO 18004KT 10SM SCT110 28/25 A2996 RMK AO2 T02790249
K5R8 190255Z AUTO 17003KT 10SM CLR 28/25 A2995 RMK AO2 T02800250
K5R8 190235Z AUTO 17003KT 10SM CLR 28/25 A2995 RMK AO2 T02820252
K5R8 190215Z AUTO 19003KT 10SM CLR 29/25 A2995 RMK AO2 T02850253
K5R8 190155Z AUTO 19003KT 10SM CLR 29/26 A2994 RMK AO2 T02860256
K5R8 190135Z AUTO 13003KT 10SM CLR 29/26 A2994 RMK AO2 T02860255
K5R8 190115Z AUTO 00000KT 10SM CLR 29/25 A2994 RMK AO2 T02870247
K5R8 190055Z AUTO 00000KT 10SM CLR 30/25 A2994 RMK AO2 T02950251
K5R8 190035Z AUTO 00000KT 10SM CLR 31/24 A2994 RMK AO2 T03140244
K5R8 190015Z AUTO 00000KT 10SM CLR 32/24 A2994 RMK AO2 T03170236
K5R8 182355Z AUTO 00000KT 10SM CLR 32/23 A2993 RMK AO2 T03210231 10338 20312
K5R8 182335Z AUTO 19003KT 10SM CLR 33/23 A2993 RMK AO2 T03260228
K5R8 182315Z AUTO 00000KT 10SM CLR 33/23 A2992 RMK AO2 T03280226
K5R8 182255Z AUTO 00000KT 10SM CLR 33/23 A2993 RMK AO2 T03260230
K5R8 182235Z AUTO 00000KT 10SM CLR 33/23 A2993 RMK AO2 T03270225
K5R8 182215Z AUTO 00000KT 10SM SCT042 33/23 A2994 RMK AO2 T03270227
K5R8 182155Z AUTO 27003KT 10SM BKN042 33/23 A2994 RMK AO2 T03310229
K5R8 182135Z AUTO 00000KT BKN040 33/23 A2994 RMK AO2 T03290227 PWINO
K5R8 182115Z AUTO 00000KT SCT040 SCT050 33/23 A2995 RMK AO2 T03310225 PWINO
K5R8 182055Z AUTO 26004KT SCT040 SCT050 33/22 A2996 RMK AO2 LTG DSNT E T03280221 PWINO
K5R8 182035Z AUTO 24003KT CLR 33/23 A2996 RMK AO2 T03290226 PWINO
K5R8 182015Z AUTO 00000KT CLR 32/23 A2997 RMK AO2 T03210229 PWINO
K5R8 181955Z AUTO 33004KT SCT110 33/23 A2998 RMK AO2 LTG DSNT NE T03250228 PWINO
K5R8 181935Z AUTO 00000KT SCT100 32/23 A2999 RMK AO2 T03180229 PWINO
K5R8 181915Z AUTO 29004KT SCT100 32/23 A2999 RMK AO2 LTG DSNT SE T03230228 PWINO
K5R8 181855Z AUTO 27004KT SCT110 32/23 A2999 RMK AO2 T03200234 PWINO
K5R8 181835Z AUTO 26004KT SCT100 32/23 A3000 RMK AO2 T03220233 PWINO
K5R8 181815Z AUTO 29005KT SCT033 SCT100 31/23 A3001 RMK AO2 T03140233 PWINO
K5R8 181755Z AUTO 23005KT SCT033 SCT100 32/23 A3001 RMK AO2 T03170230 10317 20250 PWINO
K5R8 181735Z AUTO 23005KT SCT030 32/23 A3001 RMK AO2 T03160232 PWINO
K5R8 181715Z AUTO 21006KT SCT030 31/23 A3002 RMK AO2 T03110231 PWINO
K5R8 181655Z AUTO 22003KT CLR 31/23 A3001 RMK AO2 T03060231 PWINO
K5R8 181635Z AUTO 23008KT SCT025 30/23 A3002 RMK AO2 T03040231 PWINO
K5R8 181615Z AUTO 24005KT CLR 30/24 A3003 RMK AO2 T03040236 PWINO
K5R8 181555Z AUTO 25007KT CLR 30/23 A3003 RMK AO2 T02970231 PWINO
K5R8 181535Z AUTO 27007KT SCT019 30/24 A3003 RMK AO2 T02970235 PWINO
K5R8 181515Z AUTO 24007KT BKN017 29/24 A3003 RMK AO2 T02930236 PWINO
K5R8 181455Z AUTO 25005KT BKN015 29/24 A3003 RMK AO2 T02900243 PWINO
K5R8 181435Z AUTO 25008KT BKN013 28/24 A3004 RMK AO2 T02780242 PWINO
K5R8 181415Z AUTO 26008KT BKN013 28/24 A3004 RMK AO2 T02750243 PWINO
K5R8 181355Z AUTO 24006KT SCT011 SCT110 27/25 A3004 RMK AO2 T02710245 PWINO
K5R8 181335Z AUTO 24006KT 27/24 A3003 RMK AO2 LTG DSNT N T02650244 PWINO
K5R8 181315Z AUTO 24003KT 26/25 A3003 RMK AO2 T02630246 PWINO
K5R8 181255Z AUTO 23004KT 26/25 A3003 RMK AO2 T02600248 PWINO
K5R8 181235Z AUTO 23003KT 25/25 A3002 RMK AO2 T02540245 PWINO
K5R8 181215Z AUTO 22003KT 25/25 A3002 RMK AO2 T02520245 PWINO
K5R8 181155Z AUTO 00000KT 25/24 A3002 RMK AO2 T02500242 10261 20248 PWINO
K5R8 181135Z AUTO 00000KT 25/24 A3002 RMK AO2 T02500241 PWINO
K5R8 181115Z AUTO 00000KT 25/24 A3002 RMK AO2 T02500242 PWINO
K5R8 181055Z AUTO 00000KT 25/24 A3002 RMK AO2 T02500242 PWINO
K5R8 181035Z AUTO 00000KT 25/24 A3001 RMK AO2 T02500241 PWINO
K5R8 181015Z AUTO 00000KT 25/24 A3001 RMK AO2 T02500241 PWINO
K5R8 180955Z AUTO 00000KT 25/24 A3001 RMK AO2 T02500240 PWINO
K5R8 180935Z AUTO 00000KT 25/24 A3001 RMK AO2 T02520242 PWINO
K5R8 180915Z AUTO 00000KT 25/24 A3000 RMK AO2 T02530243 PWINO
K5R8 180855Z AUTO 23003KT 25/24 A2999 RMK AO2 T02540244 PWINO
K5R8 180835Z AUTO 00000KT 26/24 A2999 RMK AO2 T02550243 PWINO
K5R8 180815Z AUTO 00000KT 26/24 A2999 RMK AO2 T02550243 PWINO
K5R8 180755Z AUTO 00000KT 26/25 A2999 RMK AO2 T02570245 PWINO
K5R8 180735Z AUTO 00000KT 26/24 A2999 RMK AO2 T02570244 PWINO
K5R8 180715Z AUTO 00000KT 26/24 A2999 RMK AO2 T02590244 PWINO
K5R8 180655Z AUTO 00000KT 26/25 A2999 RMK AO2 T02600245 PWINO
K5R8 180635Z AUTO 24003KT 26/24 A2999 RMK AO2 T02600243 PWINO
K5R8 180615Z AUTO 00000KT 26/24 A3000 RMK AO2 T02600243 PWINO
K5R8 180555Z AUTO 00000KT 26/25 A3001 RMK AO2 T02620245 10321 20262 403360240 PWINO
K5R8 180535Z AUTO 22003KT 26/25 A3001 RMK AO2 T02630245 PWINO
K5R8 180515Z AUTO 22004KT 26/25 A3001 RMK AO2 T02640245 PWINO
K5R8 180455Z AUTO 00000KT 27/25 A3002 RMK AO2 T02650247 PWINO
K5R8 180435Z AUTO 20003KT 27/25 A3002 RMK AO2 T02660247 PWINO
K5R8 180415Z AUTO 20003KT 27/25 A3003 RMK AO2 T02680248 PWINO
K5R8 180355Z AUTO 00000KT 27/25 A3003 RMK AO2 T02710250 PWINO
K5R8 180335Z AUTO 18003KT 27/25 A3002 RMK AO2 T02720250 PWINO
K5R8 180315Z AUTO 18003KT 28/25 A3002 RMK AO2 T02750250 PWINO
K5R8 180255Z AUTO 15003KT CLR 28/25 A3002 RMK AO2 T02760251 PWINO
K5R8 180235Z AUTO 18003KT CLR 28/25 A3001 RMK AO2 T02760252 PWINO
K5R8 180215Z AUTO 16003KT CLR 28/25 A3001 RMK AO2 T02780252 PWINO
K5R8 180155Z AUTO 16004KT CLR 28/25 A3001 RMK AO2 T02810250 PWINO
K5R8 180135Z AUTO 15004KT CLR 29/25 A3000 RMK AO2 T02870247 PWINO
K5R8 180115Z AUTO 14004KT CLR 29/24 A3000 RMK AO2 T02940243 PWINO
K5R8 180055Z AUTO 14003KT CLR 30/24 A3000 RMK AO2 T03010243 PWINO
K5R8 180035Z AUTO 00000KT CLR 31/24 A3000 RMK AO2 T03140236 PWINO
K5R8 180020Z AUTO 00000KT CLR 32/23 A2999 RMK AO2 T03170232 PWINO
K5R8 172355Z AUTO 00000KT CLR 32/23 A2999 RMK AO2 T03220225 10336 20318 PWINO
K5R8 172335Z AUTO 22003KT CLR 33/22 A2999 RMK AO2 T03270217 PWINO
K5R8 172315Z AUTO 20004KT CLR 33/22 A3000 RMK AO2 T03290217 PWINO
K5R8 172255Z AUTO 21003KT CLR 33/22 A3000 RMK AO2 T03300224 PWINO
K5R8 172235Z AUTO 26003KT CLR 33/22 A3000 RMK AO2 T03290218 PWINO
K5R8 172215Z AUTO 22004KT CLR 33/22 A3001 RMK AO2 T03320216 PWINO
K5R8 172155Z AUTO 24004KT CLR 33/22 A3001 RMK AO2 T03320217 PWINO
K5R8 172135Z AUTO 00000KT CLR 33/22 A3001 RMK AO2 T03300216 PWINO
K5R8 172115Z AUTO 20004KT CLR 34/22 A3001 RMK AO2 T03350222 PWINO
K5R8 172055Z AUTO 21004KT CLR 33/22 A3001 RMK AO2 T03310217 PWINO
K5R8 172035Z AUTO 29005KT CLR 33/22 A3003 RMK AO2 T03330217 PWINO
K5R8 172015Z AUTO 19004KT CLR 33/23 A3003 RMK AO2 T03330226 PWINO
K5R8 171955Z AUTO 25004KT CLR 32/22 A3004 RMK AO2 T03240224 PWINO
K5R8 171935Z AUTO 24006KT CLR 33/22 A3005 RMK AO2 T03280219 PWINO
K5R8 171915Z AUTO 29004KT CLR 33/21 A3005 RMK AO2 T03320212 PWINO
K5R8 171855Z AUTO 27005KT CLR 33/22 A3006 RMK AO2 T03280218 PWINO
K5R8 171835Z AUTO 27004KT CLR 32/21 A3006 RMK AO2 T03230213 PWINO
K5R8 171815Z AUTO 22005KT CLR 32/21 A3007 RMK AO2 T03180208 PWINO
K5R8 171755Z AUTO 26005KT CLR 32/21 A3007 RMK AO2 T03180213 10320 20240 PWINO
K5R8 171735Z AUTO 29004KT CLR 32/22 A3007 RMK AO2 T03170219 PWINO
K5R8 171715Z AUTO 28007KT 240V300 CLR 31/22 A3008 RMK AO2 T03120224 PWINO
K5R8 171655Z AUTO 28006KT CLR 31/22 A3008 RMK AO2 T03080221 PWINO
K5R8 171635Z AUTO 25005KT CLR 31/23 A3009 RMK AO2 T03050226 PWINO
K5R8 171615Z AUTO 24006KT SCT025 30/23 A3009 RMK AO2 T02980230 PWINO
K5R8 171555Z AUTO 22005KT SCT021 30/23 A3009 RMK AO2 T02970231 PWINO
K5R8 171535Z AUTO 25005KT CLR 29/23 A3009 RMK AO2 T02910234 PWINO